Terminal Aerodrome Forecast
Issued by NWS Cleveland, OH

Home | Current Version | Previous Version | Text Only | Print | Product List | Glossary Off
Versions: 1 2 3 4 5 6 7 8 9 10 11 12 13 14 15 16 17 18 19 20

000
FTUS41 KCLE 191120
TAFCLE
TAF
KCLE 191120Z 1912/2018 21004KT P6SM SCT050 SCT060
     FM191500 26007KT P6SM FEW040 SCT060
     FM192000 29007KT P6SM SCT070
     FM200200 VRB03KT P6SM SCT230
      TEMPO 2009/2013 4SM BR
     FM201500 24006KT P6SM BKN090=

USA.gov is the U.S. government's official web portal to all federal, state and local government web resources and services.